sensor_id;sensor_type;location;lat;lon;timestamp;P1;durP1;ratioP1;P2;durP2;ratioP2
40288;SDS011;28991;52.028;5.526;2023-07-16T00:01:57;0.65;;;0.65;;
40288;SDS011;28991;52.028;5.526;2023-07-16T00:04:23;0.55;;;0.55;;
40288;SDS011;28991;52.028;5.526;2023-07-16T00:06:48;0.50;;;0.50;;
40288;SDS011;28991;52.028;5.526;2023-07-16T00:09:14;0.50;;;0.50;;
40288;SDS011;28991;52.028;5.526;2023-07-16T00:11:40;0.50;;;0.50;;
40288;SDS011;28991;52.028;5.526;2023-07-16T00:14:05;0.60;;;0.60;;
40288;SDS011;28991;52.028;5.526;2023-07-16T00:16:31;0.63;;;0.63;;
40288;SDS011;28991;52.028;5.526;2023-07-16T00:18:57;0.50;;;0.50;;
40288;SDS011;28991;52.028;5.526;2023-07-16T00:21:23;0.57;;;0.57;;
40288;SDS011;28991;52.028;5.526;2023-07-16T00:23:49;0.60;;;0.60;;
40288;SDS011;28991;52.028;5.526;2023-07-16T00:26:14;1.08;;;0.63;;
40288;SDS011;28991;52.028;5.526;2023-07-16T00:28:40;0.30;;;0.30;;
40288;SDS011;28991;52.028;5.526;2023-07-16T00:31:06;0.50;;;0.50;;
40288;SDS011;28991;52.028;5.526;2023-07-16T00:33:31;0.68;;;0.68;;
40288;SDS011;28991;52.028;5.526;2023-07-16T00:36:00;0.65;;;0.47;;
40288;SDS011;28991;52.028;5.526;2023-07-16T00:38:25;0.52;;;0.50;;
40288;SDS011;28991;52.028;5.526;2023-07-16T00:40:51;0.50;;;0.50;;
40288;SDS011;28991;52.028;5.526;2023-07-16T00:43:16;0.40;;;0.40;;
40288;SDS011;28991;52.028;5.526;2023-07-16T00:45:42;0.60;;;0.60;;
40288;SDS011;28991;52.028;5.526;2023-07-16T00:48:10;0.60;;;0.60;;
40288;SDS011;28991;52.028;5.526;2023-07-16T00:50:37;0.70;;;0.60;;
40288;SDS011;28991;52.028;5.526;2023-07-16T00:53:05;0.60;;;0.60;;
40288;SDS011;28991;52.028;5.526;2023-07-16T00:55:32;0.65;;;0.50;;
40288;SDS011;28991;52.028;5.526;2023-07-16T00:58:00;0.80;;;0.70;;
40288;SDS011;28991;52.028;5.526;2023-07-16T01:00:30;0.70;;;0.70;;
40288;SDS011;28991;52.028;5.526;2023-07-16T01:03:06;0.60;;;0.60;;
40288;SDS011;28991;52.028;5.526;2023-07-16T01:05:39;0.60;;;0.60;;
40288;SDS011;28991;52.028;5.526;2023-07-16T01:08:12;0.50;;;0.50;;
40288;SDS011;28991;52.028;5.526;2023-07-16T01:10:39;0.45;;;0.43;;
40288;SDS011;28991;52.028;5.526;2023-07-16T01:13:06;0.63;;;0.60;;
40288;SDS011;28991;52.028;5.526;2023-07-16T01:15:32;0.80;;;0.70;;
40288;SDS011;28991;52.028;5.526;2023-07-16T01:17:58;0.50;;;0.40;;
40288;SDS011;28991;52.028;5.526;2023-07-16T01:20:24;0.60;;;0.60;;
40288;SDS011;28991;52.028;5.526;2023-07-16T01:28:53;0.63;;;0.50;;
40288;SDS011;28991;52.028;5.526;2023-07-16T01:31:38;0.65;;;0.50;;
40288;SDS011;28991;52.028;5.526;2023-07-16T01:34:06;0.50;;;0.50;;
40288;SDS011;28991;52.028;5.526;2023-07-16T01:36:33;0.50;;;0.50;;
40288;SDS011;28991;52.028;5.526;2023-07-16T01:39:00;0.50;;;0.50;;
40288;SDS011;28991;52.028;5.526;2023-07-16T01:41:26;0.40;;;0.40;;
40288;SDS011;28991;52.028;5.526;2023-07-16T01:43:52;0.50;;;0.50;;
40288;SDS011;28991;52.028;5.526;2023-07-16T01:46:18;0.50;;;0.50;;
40288;SDS011;28991;52.028;5.526;2023-07-16T01:48:44;0.90;;;0.60;;
40288;SDS011;28991;52.028;5.526;2023-07-16T01:51:09;0.60;;;0.55;;
40288;SDS011;28991;52.028;5.526;2023-07-16T01:53:38;0.60;;;0.60;;
40288;SDS011;28991;52.028;5.526;2023-07-16T01:56:04;0.45;;;0.45;;
40288;SDS011;28991;52.028;5.526;2023-07-16T01:58:30;0.50;;;0.50;;
40288;SDS011;28991;52.028;5.526;2023-07-16T02:00:56;0.60;;;0.60;;
40288;SDS011;28991;52.028;5.526;2023-07-16T02:03:21;0.60;;;0.60;;
40288;SDS011;28991;52.028;5.526;2023-07-16T02:05:47;0.52;;;0.52;;
40288;SDS011;28991;52.028;5.526;2023-07-16T02:08:13;0.45;;;0.45;;
40288;SDS011;28991;52.028;5.526;2023-07-16T02:10:38;0.50;;;0.50;;
40288;SDS011;28991;52.028;5.526;2023-07-16T02:13:04;0.52;;;0.52;;
40288;SDS011;28991;52.028;5.526;2023-07-16T02:15:31;0.50;;;0.50;;
40288;SDS011;28991;52.028;5.526;2023-07-16T02:17:56;0.50;;;0.40;;
40288;SDS011;28991;52.028;5.526;2023-07-16T02:20:22;0.70;;;0.68;;
40288;SDS011;28991;52.028;5.526;2023-07-16T02:22:47;0.55;;;0.55;;
40288;SDS011;28991;52.028;5.526;2023-07-16T02:25:13;0.50;;;0.50;;
40288;SDS011;28991;52.028;5.526;2023-07-16T02:27:39;0.50;;;0.50;;
40288;SDS011;28991;52.028;5.526;2023-07-16T02:30:04;0.40;;;0.40;;
40288;SDS011;28991;52.028;5.526;2023-07-16T02:32:31;0.60;;;0.60;;
40288;SDS011;28991;52.028;5.526;2023-07-16T02:34:58;0.50;;;0.50;;
40288;SDS011;28991;52.028;5.526;2023-07-16T02:37:23;0.40;;;0.40;;
40288;SDS011;28991;52.028;5.526;2023-07-16T02:39:49;0.45;;;0.40;;
40288;SDS011;28991;52.028;5.526;2023-07-16T02:42:14;0.70;;;0.70;;
40288;SDS011;28991;52.028;5.526;2023-07-16T02:44:40;0.80;;;0.80;;
40288;SDS011;28991;52.028;5.526;2023-07-16T02:47:10;0.45;;;0.40;;
40288;SDS011;28991;52.028;5.526;2023-07-16T02:49:36;0.50;;;0.47;;
40288;SDS011;28991;52.028;5.526;2023-07-16T02:52:02;0.50;;;0.50;;
40288;SDS011;28991;52.028;5.526;2023-07-16T02:54:28;0.40;;;0.40;;
40288;SDS011;28991;52.028;5.526;2023-07-16T02:56:53;0.65;;;0.57;;
40288;SDS011;28991;52.028;5.526;2023-07-16T02:59:19;0.70;;;0.70;;
40288;SDS011;28991;52.028;5.526;2023-07-16T03:01:44;0.60;;;0.60;;
40288;SDS011;28991;52.028;5.526;2023-07-16T03:04:10;0.63;;;0.50;;
40288;SDS011;28991;52.028;5.526;2023-07-16T03:06:35;0.63;;;0.55;;
40288;SDS011;28991;52.028;5.526;2023-07-16T03:09:01;0.43;;;0.43;;
40288;SDS011;28991;52.028;5.526;2023-07-16T03:11:26;0.40;;;0.40;;
40288;SDS011;28991;52.028;5.526;2023-07-16T03:13:52;0.43;;;0.43;;
40288;SDS011;28991;52.028;5.526;2023-07-16T03:16:18;0.60;;;0.50;;
40288;SDS011;28991;52.028;5.526;2023-07-16T03:18:44;0.50;;;0.50;;
40288;SDS011;28991;52.028;5.526;2023-07-16T03:21:10;0.50;;;0.50;;
40288;SDS011;28991;52.028;5.526;2023-07-16T03:23:36;0.65;;;0.50;;
40288;SDS011;28991;52.028;5.526;2023-07-16T03:26:01;0.43;;;0.43;;
40288;SDS011;28991;52.028;5.526;2023-07-16T03:28:27;0.47;;;0.40;;
40288;SDS011;28991;52.028;5.526;2023-07-16T03:30:53;0.57;;;0.50;;
40288;SDS011;28991;52.028;5.526;2023-07-16T03:33:19;0.40;;;0.40;;
40288;SDS011;28991;52.028;5.526;2023-07-16T03:35:45;0.40;;;0.40;;
40288;SDS011;28991;52.028;5.526;2023-07-16T03:38:12;0.40;;;0.40;;
40288;SDS011;28991;52.028;5.526;2023-07-16T03:40:38;0.50;;;0.50;;
40288;SDS011;28991;52.028;5.526;2023-07-16T03:43:04;0.50;;;0.50;;
40288;SDS011;28991;52.028;5.526;2023-07-16T03:45:30;0.30;;;0.30;;
40288;SDS011;28991;52.028;5.526;2023-07-16T03:47:56;0.52;;;0.52;;
40288;SDS011;28991;52.028;5.526;2023-07-16T03:50:22;0.50;;;0.50;;
40288;SDS011;28991;52.028;5.526;2023-07-16T03:52:47;0.50;;;0.50;;
40288;SDS011;28991;52.028;5.526;2023-07-16T03:55:13;0.50;;;0.50;;
40288;SDS011;28991;52.028;5.526;2023-07-16T03:57:38;0.65;;;0.40;;
40288;SDS011;28991;52.028;5.526;2023-07-16T04:00:05;0.50;;;0.50;;
40288;SDS011;28991;52.028;5.526;2023-07-16T04:02:33;0.45;;;0.45;;
40288;SDS011;28991;52.028;5.526;2023-07-16T04:04:58;0.50;;;0.50;;
40288;SDS011;28991;52.028;5.526;2023-07-16T04:07:24;0.55;;;0.55;;
40288;SDS011;28991;52.028;5.526;2023-07-16T04:09:51;0.43;;;0.43;;
40288;SDS011;28991;52.028;5.526;2023-07-16T04:12:16;0.73;;;0.73;;
40288;SDS011;28991;52.028;5.526;2023-07-16T04:14:42;0.55;;;0.50;;
40288;SDS011;28991;52.028;5.526;2023-07-16T04:17:08;0.50;;;0.50;;
40288;SDS011;28991;52.028;5.526;2023-07-16T04:19:33;0.63;;;0.50;;
40288;SDS011;28991;52.028;5.526;2023-07-16T04:21:59;0.60;;;0.60;;
40288;SDS011;28991;52.028;5.526;2023-07-16T04:24:25;0.55;;;0.50;;
40288;SDS011;28991;52.028;5.526;2023-07-16T04:26:52;0.50;;;0.50;;
40288;SDS011;28991;52.028;5.526;2023-07-16T04:29:21;0.52;;;0.52;;
40288;SDS011;28991;52.028;5.526;2023-07-16T04:31:46;0.63;;;0.60;;
40288;SDS011;28991;52.028;5.526;2023-07-16T04:34:12;1.13;;;0.68;;
40288;SDS011;28991;52.028;5.526;2023-07-16T04:36:38;0.50;;;0.50;;
40288;SDS011;28991;52.028;5.526;2023-07-16T04:39:03;0.60;;;0.60;;
40288;SDS011;28991;52.028;5.526;2023-07-16T04:41:29;0.50;;;0.50;;
40288;SDS011;28991;52.028;5.526;2023-07-16T04:43:55;0.57;;;0.57;;
40288;SDS011;28991;52.028;5.526;2023-07-16T04:46:21;0.43;;;0.43;;
40288;SDS011;28991;52.028;5.526;2023-07-16T04:48:47;0.70;;;0.50;;
40288;SDS011;28991;52.028;5.526;2023-07-16T04:51:12;0.68;;;0.60;;
40288;SDS011;28991;52.028;5.526;2023-07-16T04:53:38;1.27;;;0.60;;
40288;SDS011;28991;52.028;5.526;2023-07-16T04:56:04;0.93;;;0.60;;
40288;SDS011;28991;52.028;5.526;2023-07-16T04:58:31;0.77;;;0.65;;
40288;SDS011;28991;52.028;5.526;2023-07-16T05:00:57;0.52;;;0.45;;
40288;SDS011;28991;52.028;5.526;2023-07-16T05:03:23;0.63;;;0.60;;
40288;SDS011;28991;52.028;5.526;2023-07-16T05:05:48;0.75;;;0.60;;
40288;SDS011;28991;52.028;5.526;2023-07-16T05:08:14;0.65;;;0.60;;
40288;SDS011;28991;52.028;5.526;2023-07-16T05:10:39;0.88;;;0.77;;
40288;SDS011;28991;52.028;5.526;2023-07-16T05:13:05;0.55;;;0.55;;
40288;SDS011;28991;52.028;5.526;2023-07-16T05:15:31;0.50;;;0.50;;
40288;SDS011;28991;52.028;5.526;2023-07-16T05:17:57;0.60;;;0.60;;
40288;SDS011;28991;52.028;5.526;2023-07-16T05:20:23;0.70;;;0.70;;
40288;SDS011;28991;52.028;5.526;2023-07-16T05:22:48;0.63;;;0.60;;
40288;SDS011;28991;52.028;5.526;2023-07-16T05:25:16;0.88;;;0.60;;
40288;SDS011;28991;52.028;5.526;2023-07-16T05:27:41;0.57;;;0.57;;
40288;SDS011;28991;52.028;5.526;2023-07-16T05:30:07;0.80;;;0.60;;
40288;SDS011;28991;52.028;5.526;2023-07-16T05:32:33;1.40;;;0.70;;
40288;SDS011;28991;52.028;5.526;2023-07-16T05:34:58;0.57;;;0.57;;
40288;SDS011;28991;52.028;5.526;2023-07-16T05:37:24;0.98;;;0.60;;
40288;SDS011;28991;52.028;5.526;2023-07-16T05:39:50;0.98;;;0.70;;
40288;SDS011;28991;52.028;5.526;2023-07-16T05:42:16;0.80;;;0.68;;
40288;SDS011;28991;52.028;5.526;2023-07-16T05:44:41;0.80;;;0.60;;
40288;SDS011;28991;52.028;5.526;2023-07-16T05:47:09;0.50;;;0.50;;
40288;SDS011;28991;52.028;5.526;2023-07-16T05:49:35;0.65;;;0.60;;
40288;SDS011;28991;52.028;5.526;2023-07-16T05:52:00;0.60;;;0.60;;
40288;SDS011;28991;52.028;5.526;2023-07-16T05:54:26;0.75;;;0.70;;
40288;SDS011;28991;52.028;5.526;2023-07-16T05:56:51;0.90;;;0.60;;
40288;SDS011;28991;52.028;5.526;2023-07-16T05:59:18;0.52;;;0.52;;
40288;SDS011;28991;52.028;5.526;2023-07-16T06:01:43;0.70;;;0.70;;
40288;SDS011;28991;52.028;5.526;2023-07-16T06:04:09;0.50;;;0.50;;
40288;SDS011;28991;52.028;5.526;2023-07-16T06:06:34;0.60;;;0.60;;
40288;SDS011;28991;52.028;5.526;2023-07-16T06:09:00;0.70;;;0.70;;
40288;SDS011;28991;52.028;5.526;2023-07-16T06:11:26;0.85;;;0.70;;
40288;SDS011;28991;52.028;5.526;2023-07-16T06:13:52;0.75;;;0.50;;
40288;SDS011;28991;52.028;5.526;2023-07-16T06:16:19;0.63;;;0.63;;
40288;SDS011;28991;52.028;5.526;2023-07-16T06:18:44;0.77;;;0.77;;
40288;SDS011;28991;52.028;5.526;2023-07-16T06:21:10;0.80;;;0.80;;
40288;SDS011;28991;52.028;5.526;2023-07-16T06:23:35;0.40;;;0.40;;
40288;SDS011;28991;52.028;5.526;2023-07-16T06:26:01;2.58;;;0.85;;
40288;SDS011;28991;52.028;5.526;2023-07-16T06:28:27;0.70;;;0.65;;
40288;SDS011;28991;52.028;5.526;2023-07-16T06:30:52;0.70;;;0.60;;
40288;SDS011;28991;52.028;5.526;2023-07-16T06:33:18;0.70;;;0.70;;
40288;SDS011;28991;52.028;5.526;2023-07-16T06:35:44;0.65;;;0.60;;
40288;SDS011;28991;52.028;5.526;2023-07-16T06:38:11;0.80;;;0.80;;
40288;SDS011;28991;52.028;5.526;2023-07-16T06:40:37;0.65;;;0.65;;
40288;SDS011;28991;52.028;5.526;2023-07-16T06:43:03;1.42;;;1.00;;
40288;SDS011;28991;52.028;5.526;2023-07-16T06:45:28;1.30;;;0.77;;
40288;SDS011;28991;52.028;5.526;2023-07-16T06:47:54;1.05;;;0.90;;
40288;SDS011;28991;52.028;5.526;2023-07-16T06:50:20;1.63;;;1.00;;
40288;SDS011;28991;52.028;5.526;2023-07-16T06:52:45;1.30;;;1.20;;
40288;SDS011;28991;52.028;5.526;2023-07-16T06:55:11;1.20;;;1.10;;
40288;SDS011;28991;52.028;5.526;2023-07-16T06:57:36;1.27;;;1.17;;
40288;SDS011;28991;52.028;5.526;2023-07-16T07:00:02;1.30;;;1.20;;
40288;SDS011;28991;52.028;5.526;2023-07-16T07:02:29;1.52;;;1.27;;
40288;SDS011;28991;52.028;5.526;2023-07-16T07:04:54;2.42;;;1.40;;
40288;SDS011;28991;52.028;5.526;2023-07-16T07:07:20;1.90;;;1.55;;
40288;SDS011;28991;52.028;5.526;2023-07-16T07:09:48;2.67;;;1.40;;
40288;SDS011;28991;52.028;5.526;2023-07-16T07:12:14;1.27;;;1.17;;
40288;SDS011;28991;52.028;5.526;2023-07-16T07:14:39;1.80;;;1.33;;
40288;SDS011;28991;52.028;5.526;2023-07-16T07:17:05;1.50;;;1.40;;
40288;SDS011;28991;52.028;5.526;2023-07-16T07:19:30;1.40;;;1.30;;
40288;SDS011;28991;52.028;5.526;2023-07-16T07:21:57;1.80;;;1.50;;
40288;SDS011;28991;52.028;5.526;2023-07-16T07:24:22;3.55;;;1.67;;
40288;SDS011;28991;52.028;5.526;2023-07-16T07:26:48;1.60;;;1.50;;
40288;SDS011;28991;52.028;5.526;2023-07-16T07:29:14;2.30;;;1.80;;
40288;SDS011;28991;52.028;5.526;2023-07-16T07:31:39;1.20;;;1.10;;
40288;SDS011;28991;52.028;5.526;2023-07-16T07:34:05;1.67;;;1.45;;
40288;SDS011;28991;52.028;5.526;2023-07-16T07:36:30;1.58;;;1.48;;
40288;SDS011;28991;52.028;5.526;2023-07-16T07:38:56;1.85;;;1.35;;
40288;SDS011;28991;52.028;5.526;2023-07-16T07:41:22;1.73;;;1.52;;
40288;SDS011;28991;52.028;5.526;2023-07-16T07:43:47;1.67;;;1.58;;
40288;SDS011;28991;52.028;5.526;2023-07-16T07:46:13;2.55;;;1.92;;
40288;SDS011;28991;52.028;5.526;2023-07-16T07:48:38;1.70;;;1.50;;
40288;SDS011;28991;52.028;5.526;2023-07-16T07:51:04;2.33;;;1.80;;
40288;SDS011;28991;52.028;5.526;2023-07-16T07:53:30;1.92;;;1.75;;
40288;SDS011;28991;52.028;5.526;2023-07-16T07:55:56;1.55;;;1.38;;
40288;SDS011;28991;52.028;5.526;2023-07-16T07:58:22;1.70;;;1.33;;
40288;SDS011;28991;52.028;5.526;2023-07-16T08:00:48;2.13;;;1.83;;
40288;SDS011;28991;52.028;5.526;2023-07-16T08:03:13;2.28;;;1.40;;
40288;SDS011;28991;52.028;5.526;2023-07-16T08:05:39;1.75;;;1.63;;
40288;SDS011;28991;52.028;5.526;2023-07-16T08:08:04;2.05;;;1.73;;
40288;SDS011;28991;52.028;5.526;2023-07-16T08:10:30;2.40;;;1.92;;
40288;SDS011;28991;52.028;5.526;2023-07-16T08:12:56;3.38;;;1.83;;
40288;SDS011;28991;52.028;5.526;2023-07-16T08:15:21;2.55;;;1.88;;
40288;SDS011;28991;52.028;5.526;2023-07-16T08:17:47;2.38;;;1.80;;
40288;SDS011;28991;52.028;5.526;2023-07-16T08:20:13;2.22;;;1.80;;
40288;SDS011;28991;52.028;5.526;2023-07-16T08:22:39;2.10;;;1.88;;
40288;SDS011;28991;52.028;5.526;2023-07-16T08:25:05;2.10;;;1.90;;
40288;SDS011;28991;52.028;5.526;2023-07-16T08:27:32;1.80;;;1.70;;
40288;SDS011;28991;52.028;5.526;2023-07-16T08:29:57;1.88;;;1.73;;
40288;SDS011;28991;52.028;5.526;2023-07-16T08:32:23;1.90;;;1.67;;
40288;SDS011;28991;52.028;5.526;2023-07-16T08:34:49;1.77;;;1.65;;
40288;SDS011;28991;52.028;5.526;2023-07-16T08:37:14;2.47;;;1.92;;
40288;SDS011;28991;52.028;5.526;2023-07-16T08:39:40;1.80;;;1.70;;
40288;SDS011;28991;52.028;5.526;2023-07-16T08:42:06;2.08;;;1.80;;
40288;SDS011;28991;52.028;5.526;2023-07-16T08:44:36;2.35;;;1.85;;
40288;SDS011;28991;52.028;5.526;2023-07-16T08:47:02;3.03;;;2.30;;
40288;SDS011;28991;52.028;5.526;2023-07-16T08:49:29;3.13;;;2.08;;
40288;SDS011;28991;52.028;5.526;2023-07-16T08:51:55;2.17;;;1.98;;
40288;SDS011;28991;52.028;5.526;2023-07-16T08:54:22;2.28;;;1.88;;
40288;SDS011;28991;52.028;5.526;2023-07-16T08:56:48;1.90;;;1.70;;
40288;SDS011;28991;52.028;5.526;2023-07-16T08:59:17;2.47;;;2.25;;
40288;SDS011;28991;52.028;5.526;2023-07-16T09:01:43;2.53;;;1.92;;
40288;SDS011;28991;52.028;5.526;2023-07-16T09:04:11;2.22;;;2.03;;
40288;SDS011;28991;52.028;5.526;2023-07-16T09:06:36;2.00;;;1.88;;
40288;SDS011;28991;52.028;5.526;2023-07-16T09:09:02;1.98;;;1.65;;
40288;SDS011;28991;52.028;5.526;2023-07-16T09:11:28;2.38;;;2.17;;
40288;SDS011;28991;52.028;5.526;2023-07-16T09:13:54;2.35;;;2.13;;
40288;SDS011;28991;52.028;5.526;2023-07-16T09:16:20;2.85;;;1.90;;
40288;SDS011;28991;52.028;5.526;2023-07-16T09:18:46;2.08;;;1.88;;
40288;SDS011;28991;52.028;5.526;2023-07-16T09:21:12;2.20;;;2.00;;
40288;SDS011;28991;52.028;5.526;2023-07-16T09:23:38;2.15;;;1.92;;
40288;SDS011;28991;52.028;5.526;2023-07-16T09:26:06;2.70;;;1.98;;
40288;SDS011;28991;52.028;5.526;2023-07-16T09:28:32;2.08;;;1.83;;
40288;SDS011;28991;52.028;5.526;2023-07-16T09:31:05;2.55;;;2.35;;
40288;SDS011;28991;52.028;5.526;2023-07-16T09:33:35;1.98;;;1.70;;
40288;SDS011;28991;52.028;5.526;2023-07-16T09:36:00;2.53;;;2.20;;
40288;SDS011;28991;52.028;5.526;2023-07-16T09:38:27;3.03;;;2.00;;
40288;SDS011;28991;52.028;5.526;2023-07-16T09:40:55;2.03;;;1.88;;
40288;SDS011;28991;52.028;5.526;2023-07-16T09:43:21;2.20;;;1.65;;
40288;SDS011;28991;52.028;5.526;2023-07-16T09:45:47;2.17;;;1.98;;
40288;SDS011;28991;52.028;5.526;2023-07-16T09:48:13;2.00;;;1.90;;
40288;SDS011;28991;52.028;5.526;2023-07-16T09:50:40;1.90;;;1.80;;
40288;SDS011;28991;52.028;5.526;2023-07-16T09:53:10;2.45;;;2.00;;
40288;SDS011;28991;52.028;5.526;2023-07-16T09:55:36;2.08;;;1.88;;
40288;SDS011;28991;52.028;5.526;2023-07-16T09:58:04;2.10;;;1.90;;
40288;SDS011;28991;52.028;5.526;2023-07-16T10:00:33;2.58;;;2.05;;
40288;SDS011;28991;52.028;5.526;2023-07-16T10:03:01;2.03;;;1.80;;
40288;SDS011;28991;52.028;5.526;2023-07-16T10:05:28;2.97;;;1.90;;
40288;SDS011;28991;52.028;5.526;2023-07-16T10:07:54;2.03;;;1.83;;
40288;SDS011;28991;52.028;5.526;2023-07-16T10:10:25;2.15;;;1.90;;
40288;SDS011;28991;52.028;5.526;2023-07-16T10:12:55;3.15;;;1.80;;
40288;SDS011;28991;52.028;5.526;2023-07-16T10:15:26;1.63;;;1.53;;
40288;SDS011;28991;52.028;5.526;2023-07-16T10:17:53;2.53;;;2.33;;
40288;SDS011;28991;52.028;5.526;2023-07-16T10:20:27;2.47;;;1.77;;
40288;SDS011;28991;52.028;5.526;2023-07-16T10:23:14;3.05;;;2.10;;
40288;SDS011;28991;52.028;5.526;2023-07-16T10:25:41;2.13;;;1.92;;
40288;SDS011;28991;52.028;5.526;2023-07-16T10:28:23;3.25;;;2.13;;
40288;SDS011;28991;52.028;5.526;2023-07-16T10:30:49;2.65;;;2.13;;
40288;SDS011;28991;52.028;5.526;2023-07-16T10:33:15;2.72;;;2.10;;
40288;SDS011;28991;52.028;5.526;2023-07-16T10:35:41;2.80;;;2.10;;
40288;SDS011;28991;52.028;5.526;2023-07-16T10:38:07;2.78;;;1.90;;
40288;SDS011;28991;52.028;5.526;2023-07-16T10:40:33;2.13;;;1.92;;
40288;SDS011;28991;52.028;5.526;2023-07-16T10:43:05;2.40;;;2.08;;
40288;SDS011;28991;52.028;5.526;2023-07-16T10:45:31;2.25;;;2.05;;
40288;SDS011;28991;52.028;5.526;2023-07-16T10:47:57;3.45;;;2.00;;
40288;SDS011;28991;52.028;5.526;2023-07-16T10:50:22;2.58;;;2.03;;
40288;SDS011;28991;52.028;5.526;2023-07-16T10:52:55;2.78;;;2.42;;
40288;SDS011;28991;52.028;5.526;2023-07-16T10:55:21;3.03;;;2.50;;
40288;SDS011;28991;52.028;5.526;2023-07-16T10:57:48;2.03;;;1.80;;
40288;SDS011;28991;52.028;5.526;2023-07-16T11:00:14;2.33;;;2.13;;
40288;SDS011;28991;52.028;5.526;2023-07-16T11:02:42;1.73;;;1.63;;
40288;SDS011;28991;52.028;5.526;2023-07-16T11:05:11;2.08;;;1.85;;
40288;SDS011;28991;52.028;5.526;2023-07-16T11:07:38;1.73;;;1.63;;
40288;SDS011;28991;52.028;5.526;2023-07-16T11:10:11;1.77;;;1.65;;
40288;SDS011;28991;52.028;5.526;2023-07-16T11:12:37;1.80;;;1.70;;
40288;SDS011;28991;52.028;5.526;2023-07-16T11:15:02;2.28;;;1.90;;
40288;SDS011;28991;52.028;5.526;2023-07-16T11:17:28;1.85;;;1.50;;
40288;SDS011;28991;52.028;5.526;2023-07-16T11:19:54;2.72;;;1.75;;
40288;SDS011;28991;52.028;5.526;2023-07-16T11:22:24;2.47;;;1.80;;
40288;SDS011;28991;52.028;5.526;2023-07-16T11:24:52;1.80;;;1.70;;
40288;SDS011;28991;52.028;5.526;2023-07-16T11:27:19;1.98;;;1.60;;
40288;SDS011;28991;52.028;5.526;2023-07-16T11:29:53;1.70;;;1.60;;
40288;SDS011;28991;52.028;5.526;2023-07-16T11:34:55;3.60;;;2.22;;
40288;SDS011;28991;52.028;5.526;2023-07-16T11:37:24;1.52;;;1.42;;
40288;SDS011;28991;52.028;5.526;2023-07-16T11:39:50;3.10;;;2.20;;
40288;SDS011;28991;52.028;5.526;2023-07-16T11:42:22;2.08;;;1.70;;
40288;SDS011;28991;52.028;5.526;2023-07-16T11:47:28;1.83;;;1.67;;
40288;SDS011;28991;52.028;5.526;2023-07-16T11:49:54;1.63;;;1.50;;
40288;SDS011;28991;52.028;5.526;2023-07-16T11:52:21;1.75;;;1.60;;
40288;SDS011;28991;52.028;5.526;2023-07-16T11:54:49;2.00;;;1.80;;
40288;SDS011;28991;52.028;5.526;2023-07-16T11:57:16;2.08;;;1.60;;
40288;SDS011;28991;52.028;5.526;2023-07-16T11:59:42;2.05;;;1.75;;
40288;SDS011;28991;52.028;5.526;2023-07-16T12:02:08;1.77;;;1.60;;
40288;SDS011;28991;52.028;5.526;2023-07-16T12:04:34;3.30;;;1.88;;
40288;SDS011;28991;52.028;5.526;2023-07-16T12:06:59;1.52;;;1.42;;
40288;SDS011;28991;52.028;5.526;2023-07-16T12:09:25;1.95;;;1.40;;
40288;SDS011;28991;52.028;5.526;2023-07-16T12:11:51;1.80;;;1.70;;
40288;SDS011;28991;52.028;5.526;2023-07-16T12:14:16;1.85;;;1.67;;
40288;SDS011;28991;52.028;5.526;2023-07-16T12:16:42;2.17;;;1.98;;
40288;SDS011;28991;52.028;5.526;2023-07-16T12:19:08;1.98;;;1.55;;
40288;SDS011;28991;52.028;5.526;2023-07-16T12:21:35;2.30;;;1.70;;
40288;SDS011;28991;52.028;5.526;2023-07-16T12:24:01;3.78;;;1.83;;
40288;SDS011;28991;52.028;5.526;2023-07-16T12:26:27;1.75;;;1.60;;
40288;SDS011;28991;52.028;5.526;2023-07-16T12:28:53;1.58;;;1.48;;
40288;SDS011;28991;52.028;5.526;2023-07-16T12:31:18;1.90;;;1.70;;
40288;SDS011;28991;52.028;5.526;2023-07-16T12:33:45;1.90;;;1.52;;
40288;SDS011;28991;52.028;5.526;2023-07-16T12:36:11;2.30;;;1.70;;
40288;SDS011;28991;52.028;5.526;2023-07-16T12:38:38;1.58;;;1.48;;
40288;SDS011;28991;52.028;5.526;2023-07-16T12:41:03;1.73;;;1.63;;
40288;SDS011;28991;52.028;5.526;2023-07-16T12:43:30;1.80;;;1.63;;
40288;SDS011;28991;52.028;5.526;2023-07-16T12:45:58;1.85;;;1.65;;
40288;SDS011;28991;52.028;5.526;2023-07-16T12:48:25;2.72;;;1.77;;
40288;SDS011;28991;52.028;5.526;2023-07-16T12:50:51;1.60;;;1.40;;
40288;SDS011;28991;52.028;5.526;2023-07-16T12:53:17;1.90;;;1.50;;
40288;SDS011;28991;52.028;5.526;2023-07-16T12:55:42;1.63;;;1.52;;
40288;SDS011;28991;52.028;5.526;2023-07-16T12:58:08;2.00;;;1.80;;
40288;SDS011;28991;52.028;5.526;2023-07-16T13:00:34;2.33;;;1.80;;
40288;SDS011;28991;52.028;5.526;2023-07-16T13:02:59;2.05;;;1.83;;
40288;SDS011;28991;52.028;5.526;2023-07-16T13:05:25;1.95;;;1.85;;
40288;SDS011;28991;52.028;5.526;2023-07-16T13:07:51;1.73;;;1.63;;
40288;SDS011;28991;52.028;5.526;2023-07-16T13:10:17;1.85;;;1.65;;
40288;SDS011;28991;52.028;5.526;2023-07-16T13:12:43;1.90;;;1.60;;
40288;SDS011;28991;52.028;5.526;2023-07-16T13:15:09;1.63;;;1.52;;
40288;SDS011;28991;52.028;5.526;2023-07-16T13:17:35;2.03;;;1.55;;
40288;SDS011;28991;52.028;5.526;2023-07-16T13:20:02;1.80;;;1.70;;
40288;SDS011;28991;52.028;5.526;2023-07-16T13:22:28;2.00;;;1.50;;
40288;SDS011;28991;52.028;5.526;2023-07-16T13:24:54;1.55;;;1.45;;
40288;SDS011;28991;52.028;5.526;2023-07-16T13:27:20;1.75;;;1.40;;
40288;SDS011;28991;52.028;5.526;2023-07-16T13:29:46;1.63;;;1.52;;
40288;SDS011;28991;52.028;5.526;2023-07-16T13:32:12;1.75;;;1.40;;
40288;SDS011;28991;52.028;5.526;2023-07-16T13:34:37;1.50;;;1.40;;
40288;SDS011;28991;52.028;5.526;2023-07-16T13:37:03;1.67;;;1.55;;
40288;SDS011;28991;52.028;5.526;2023-07-16T13:39:29;1.70;;;1.60;;
40288;SDS011;28991;52.028;5.526;2023-07-16T13:41:54;1.80;;;1.70;;
40288;SDS011;28991;52.028;5.526;2023-07-16T13:44:20;1.80;;;1.70;;
40288;SDS011;28991;52.028;5.526;2023-07-16T13:46:46;2.13;;;2.00;;
40288;SDS011;28991;52.028;5.526;2023-07-16T13:49:12;1.83;;;1.52;;
40288;SDS011;28991;52.028;5.526;2023-07-16T13:51:37;1.63;;;1.52;;
40288;SDS011;28991;52.028;5.526;2023-07-16T13:54:03;1.75;;;1.65;;
40288;SDS011;28991;52.028;5.526;2023-07-16T13:56:29;1.45;;;1.35;;
40288;SDS011;28991;52.028;5.526;2023-07-16T13:58:54;1.73;;;1.42;;
40288;SDS011;28991;52.028;5.526;2023-07-16T14:01:20;2.25;;;2.05;;
40288;SDS011;28991;52.028;5.526;2023-07-16T14:03:46;1.98;;;1.77;;
40288;SDS011;28991;52.028;5.526;2023-07-16T14:06:12;2.05;;;1.60;;
40288;SDS011;28991;52.028;5.526;2023-07-16T14:08:37;1.92;;;1.58;;
40288;SDS011;28991;52.028;5.526;2023-07-16T14:11:03;1.73;;;1.52;;
40288;SDS011;28991;52.028;5.526;2023-07-16T14:13:32;1.85;;;1.42;;
40288;SDS011;28991;52.028;5.526;2023-07-16T14:15:57;1.73;;;1.50;;
40288;SDS011;28991;52.028;5.526;2023-07-16T14:18:23;1.30;;;1.20;;
40288;SDS011;28991;52.028;5.526;2023-07-16T14:20:49;1.67;;;1.58;;
40288;SDS011;28991;52.028;5.526;2023-07-16T14:23:14;1.73;;;1.63;;
40288;SDS011;28991;52.028;5.526;2023-07-16T14:25:40;1.80;;;1.70;;
40288;SDS011;28991;52.028;5.526;2023-07-16T14:28:05;1.60;;;1.50;;
40288;SDS011;28991;52.028;5.526;2023-07-16T14:30:31;3.00;;;1.90;;
40288;SDS011;28991;52.028;5.526;2023-07-16T14:32:57;2.00;;;1.80;;
40288;SDS011;28991;52.028;5.526;2023-07-16T14:35:24;1.80;;;1.70;;
40288;SDS011;28991;52.028;5.526;2023-07-16T14:37:49;1.88;;;1.77;;
40288;SDS011;28991;52.028;5.526;2023-07-16T14:40:15;2.40;;;1.67;;
40288;SDS011;28991;52.028;5.526;2023-07-16T14:42:42;1.65;;;1.50;;
40288;SDS011;28991;52.028;5.526;2023-07-16T14:45:08;2.08;;;1.73;;
40288;SDS011;28991;52.028;5.526;2023-07-16T14:47:34;1.58;;;1.42;;
40288;SDS011;28991;52.028;5.526;2023-07-16T14:50:00;1.70;;;1.55;;
40288;SDS011;28991;52.028;5.526;2023-07-16T14:52:25;1.90;;;1.65;;
40288;SDS011;28991;52.028;5.526;2023-07-16T14:54:51;2.28;;;1.70;;